sensor_id;sensor_type;location;lat;lon;timestamp;pressure;altitude;pressure_sealevel;temperature;humidity
15308;BME280;7755;52.208;6.964;2022-12-29T00:02:49;99675.91;;;10.92;100.00
15308;BME280;7755;52.208;6.964;2022-12-29T00:06:53;99661.75;;;10.96;100.00
15308;BME280;7755;52.208;6.964;2022-12-29T00:10:56;99662.56;;;10.96;100.00
15308;BME280;7755;52.208;6.964;2022-12-29T00:14:59;99660.16;;;11.00;100.00
15308;BME280;7755;52.208;6.964;2022-12-29T00:19:22;99647.09;;;11.02;100.00
15308;BME280;7755;52.208;6.964;2022-12-29T00:23:42;99650.09;;;11.05;100.00
15308;BME280;7755;52.208;6.964;2022-12-29T00:28:04;99650.63;;;11.07;100.00
15308;BME280;7755;52.208;6.964;2022-12-29T00:32:30;99646.81;;;11.08;100.00
15308;BME280;7755;52.208;6.964;2022-12-29T00:36:52;99643.81;;;11.10;100.00
15308;BME280;7755;52.208;6.964;2022-12-29T00:40:55;99642.22;;;11.14;100.00
15308;BME280;7755;52.208;6.964;2022-12-29T00:45:15;99629.41;;;11.14;100.00
15308;BME280;7755;52.208;6.964;2022-12-29T00:49:19;99629.69;;;11.13;100.00
15308;BME280;7755;52.208;6.964;2022-12-29T00:53:36;99615.28;;;11.12;100.00
15308;BME280;7755;52.208;6.964;2022-12-29T00:57:39;99605.22;;;11.13;100.00
15308;BME280;7755;52.208;6.964;2022-12-29T01:01:42;99617.44;;;11.15;100.00
15308;BME280;7755;52.208;6.964;2022-12-29T01:05:45;99596.50;;;11.16;100.00
15308;BME280;7755;52.208;6.964;2022-12-29T01:09:50;99580.75;;;11.18;100.00
15308;BME280;7755;52.208;6.964;2022-12-29T01:14:12;99589.44;;;11.15;100.00
15308;BME280;7755;52.208;6.964;2022-12-29T01:18:15;99582.63;;;11.07;100.00
15308;BME280;7755;52.208;6.964;2022-12-29T01:22:19;99595.13;;;11.08;100.00
15308;BME280;7755;52.208;6.964;2022-12-29T01:26:23;99582.34;;;11.09;100.00
15308;BME280;7755;52.208;6.964;2022-12-29T01:30:27;99598.94;;;11.02;100.00
15308;BME280;7755;52.208;6.964;2022-12-29T01:34:30;99585.63;;;11.01;100.00
15308;BME280;7755;52.208;6.964;2022-12-29T01:38:33;99576.91;;;10.93;100.00
15308;BME280;7755;52.208;6.964;2022-12-29T01:42:38;99566.56;;;10.96;100.00
15308;BME280;7755;52.208;6.964;2022-12-29T01:46:43;99566.56;;;10.96;100.00
15308;BME280;7755;52.208;6.964;2022-12-29T01:50:52;99558.41;;;10.90;100.00
15308;BME280;7755;52.208;6.964;2022-12-29T01:54:57;99569.03;;;10.92;100.00
15308;BME280;7755;52.208;6.964;2022-12-29T01:59:05;99565.22;;;10.88;100.00
15308;BME280;7755;52.208;6.964;2022-12-29T02:03:12;99567.94;;;10.88;100.00
15308;BME280;7755;52.208;6.964;2022-12-29T02:07:18;99571.72;;;10.87;100.00
15308;BME280;7755;52.208;6.964;2022-12-29T02:11:23;99573.09;;;10.84;100.00
15308;BME280;7755;52.208;6.964;2022-12-29T02:15:35;99558.69;;;10.84;100.00
15308;BME280;7755;52.208;6.964;2022-12-29T02:33:56;99539.38;;;10.80;100.00
15308;BME280;7755;52.208;6.964;2022-12-29T02:38:13;99528.50;;;10.80;100.00
15308;BME280;7755;52.208;6.964;2022-12-29T02:42:26;99539.09;;;10.87;100.00
15308;BME280;7755;52.208;6.964;2022-12-29T02:46:36;99529.56;;;10.89;100.00
15308;BME280;7755;52.208;6.964;2022-12-29T02:50:44;99525.53;;;10.92;100.00
15308;BME280;7755;52.208;6.964;2022-12-29T02:54:53;99524.97;;;10.95;100.00
15308;BME280;7755;52.208;6.964;2022-12-29T02:58:56;99510.56;;;10.94;100.00
15308;BME280;7755;52.208;6.964;2022-12-29T03:03:16;99534.22;;;11.04;100.00
15308;BME280;7755;52.208;6.964;2022-12-29T03:07:32;99520.06;;;11.07;100.00
15308;BME280;7755;52.208;6.964;2022-12-29T03:11:41;99524.13;;;11.10;100.00
15308;BME280;7755;52.208;6.964;2022-12-29T03:16:09;99515.44;;;11.08;100.00
15308;BME280;7755;52.208;6.964;2022-12-29T03:20:23;99498.59;;;11.11;100.00
15308;BME280;7755;52.208;6.964;2022-12-29T03:24:32;99492.06;;;11.12;100.00
15308;BME280;7755;52.208;6.964;2022-12-29T03:28:39;99486.06;;;11.15;100.00
15308;BME280;7755;52.208;6.964;2022-12-29T03:32:47;99502.09;;;11.16;100.00
15308;BME280;7755;52.208;6.964;2022-12-29T03:36:54;99475.19;;;11.20;100.00
15308;BME280;7755;52.208;6.964;2022-12-29T03:41:07;99465.34;;;11.24;100.00
15308;BME280;7755;52.208;6.964;2022-12-29T03:45:13;99489.84;;;11.29;100.00
15308;BME280;7755;52.208;6.964;2022-12-29T03:49:17;99480.59;;;11.30;100.00
15308;BME280;7755;52.208;6.964;2022-12-29T03:53:20;99482.47;;;11.40;100.00
15308;BME280;7755;52.208;6.964;2022-12-29T03:57:25;99491.72;;;11.44;100.00
15308;BME280;7755;52.208;6.964;2022-12-29T04:01:34;99485.16;;;11.50;100.00
15308;BME280;7755;52.208;6.964;2022-12-29T04:05:37;99485.69;;;11.57;100.00
15308;BME280;7755;52.208;6.964;2022-12-29T04:09:40;99488.97;;;11.59;100.00
15308;BME280;7755;52.208;6.964;2022-12-29T04:13:49;99499.56;;;11.56;100.00
15308;BME280;7755;52.208;6.964;2022-12-29T04:17:56;99492.78;;;11.53;100.00
15308;BME280;7755;52.208;6.964;2022-12-29T04:21:59;99476.75;;;11.52;100.00
15308;BME280;7755;52.208;6.964;2022-12-29T04:26:03;99470.72;;;11.55;100.00
15308;BME280;7755;52.208;6.964;2022-12-29T04:30:13;99470.47;;;11.51;100.00
15308;BME280;7755;52.208;6.964;2022-12-29T04:34:54;99472.13;;;11.47;100.00
15308;BME280;7755;52.208;6.964;2022-12-29T04:38:57;99478.09;;;11.49;100.00
15308;BME280;7755;52.208;6.964;2022-12-29T04:43:01;99474.56;;;11.48;100.00
15308;BME280;7755;52.208;6.964;2022-12-29T04:47:08;99475.41;;;11.39;100.00
15308;BME280;7755;52.208;6.964;2022-12-29T04:51:37;99478.13;;;11.34;100.00
15308;BME280;7755;52.208;6.964;2022-12-29T04:55:44;99467.78;;;11.31;100.00
15308;BME280;7755;52.208;6.964;2022-12-29T04:59:47;99473.53;;;11.24;100.00
15308;BME280;7755;52.208;6.964;2022-12-29T05:03:51;99486.59;;;11.22;100.00
15308;BME280;7755;52.208;6.964;2022-12-29T05:07:55;99507.81;;;11.15;100.00
15308;BME280;7755;52.208;6.964;2022-12-29T05:11:58;99511.09;;;11.12;100.00
15308;BME280;7755;52.208;6.964;2022-12-29T05:16:01;99498.84;;;11.09;100.00
15308;BME280;7755;52.208;6.964;2022-12-29T05:20:07;99491.25;;;10.96;100.00
15308;BME280;7755;52.208;6.964;2022-12-29T05:24:11;99517.34;;;10.87;100.00
15308;BME280;7755;52.208;6.964;2022-12-29T05:28:15;99514.38;;;10.78;100.00
15308;BME280;7755;52.208;6.964;2022-12-29T05:32:31;99486.34;;;10.62;100.00
15308;BME280;7755;52.208;6.964;2022-12-29T05:36:36;99508.91;;;10.53;100.00
15308;BME280;7755;52.208;6.964;2022-12-29T05:40:42;99515.94;;;10.49;100.00
15308;BME280;7755;52.208;6.964;2022-12-29T05:44:57;99514.06;;;10.44;100.00
15308;BME280;7755;52.208;6.964;2022-12-29T05:49:39;99504.25;;;10.38;100.00
15308;BME280;7755;52.208;6.964;2022-12-29T05:53:45;99524.38;;;10.37;100.00
15308;BME280;7755;52.208;6.964;2022-12-29T05:57:49;99536.56;;;10.34;100.00
15308;BME280;7755;52.208;6.964;2022-12-29T06:01:53;99551.50;;;10.32;100.00
15308;BME280;7755;52.208;6.964;2022-12-29T06:05:56;99582.72;;;10.29;100.00
15308;BME280;7755;52.208;6.964;2022-12-29T06:10:03;99557.94;;;10.21;100.00
15308;BME280;7755;52.208;6.964;2022-12-29T06:14:10;99583.69;;;10.03;100.00
15308;BME280;7755;52.208;6.964;2022-12-29T06:18:13;99571.13;;;9.92;100.00
15308;BME280;7755;52.208;6.964;2022-12-29T06:22:21;99596.31;;;9.82;100.00
15308;BME280;7755;52.208;6.964;2022-12-29T06:26:26;99601.16;;;9.75;100.00
15308;BME280;7755;52.208;6.964;2022-12-29T06:30:31;99595.19;;;9.73;100.00
15308;BME280;7755;52.208;6.964;2022-12-29T06:34:36;99593.56;;;9.72;100.00
15308;BME280;7755;52.208;6.964;2022-12-29T06:38:39;99613.09;;;9.69;100.00
15308;BME280;7755;52.208;6.964;2022-12-29T06:42:44;99610.13;;;9.70;100.00
15308;BME280;7755;52.208;6.964;2022-12-29T06:47:06;99604.09;;;9.68;100.00
15308;BME280;7755;52.208;6.964;2022-12-29T06:51:09;99619.03;;;9.66;100.00
15308;BME280;7755;52.208;6.964;2022-12-29T06:55:12;99632.06;;;9.64;100.00
15308;BME280;7755;52.208;6.964;2022-12-29T06:59:17;99623.63;;;9.65;100.00
15308;BME280;7755;52.208;6.964;2022-12-29T07:03:20;99626.09;;;9.67;100.00
15308;BME280;7755;52.208;6.964;2022-12-29T07:07:23;99630.41;;;9.63;100.00
15308;BME280;7755;52.208;6.964;2022-12-29T07:11:26;99638.56;;;9.63;100.00
15308;BME280;7755;52.208;6.964;2022-12-29T07:15:30;99636.63;;;9.58;100.00
15308;BME280;7755;52.208;6.964;2022-12-29T07:19:33;99634.97;;;9.57;100.00
15308;BME280;7755;52.208;6.964;2022-12-29T07:23:37;99631.69;;;9.55;100.00
15308;BME280;7755;52.208;6.964;2022-12-29T07:27:40;99632.28;;;9.57;100.00
15308;BME280;7755;52.208;6.964;2022-12-29T07:31:44;99633.09;;;9.57;100.00
15308;BME280;7755;52.208;6.964;2022-12-29T07:35:47;99630.66;;;9.61;100.00
15308;BME280;7755;52.208;6.964;2022-12-29T07:39:50;99629.34;;;9.64;100.00
15308;BME280;7755;52.208;6.964;2022-12-29T07:43:53;99638.06;;;9.71;100.00
15308;BME280;7755;52.208;6.964;2022-12-29T07:48:27;99644.09;;;9.78;100.00
15308;BME280;7755;52.208;6.964;2022-12-29T07:52:31;99641.91;;;9.80;100.00
15308;BME280;7755;52.208;6.964;2022-12-29T07:56:34;99644.13;;;9.83;100.00
15308;BME280;7755;52.208;6.964;2022-12-29T08:00:37;99658.25;;;9.85;100.00
15308;BME280;7755;52.208;6.964;2022-12-29T08:04:42;99643.41;;;9.98;100.00
15308;BME280;7755;52.208;6.964;2022-12-29T08:08:45;99648.56;;;9.99;100.00
15308;BME280;7755;52.208;6.964;2022-12-29T08:12:48;99648.28;;;10.01;100.00
15308;BME280;7755;52.208;6.964;2022-12-29T08:16:51;99657.53;;;10.00;100.00
15308;BME280;7755;52.208;6.964;2022-12-29T08:21:01;99670.31;;;10.04;100.00
15308;BME280;7755;52.208;6.964;2022-12-29T08:25:04;99673.59;;;10.06;100.00
15308;BME280;7755;52.208;6.964;2022-12-29T08:29:07;99663.53;;;10.07;100.00
15308;BME280;7755;52.208;6.964;2022-12-29T08:33:11;99654.88;;;10.10;100.00
15308;BME280;7755;52.208;6.964;2022-12-29T08:37:15;99671.19;;;10.15;100.00
15308;BME280;7755;52.208;6.964;2022-12-29T08:41:18;99664.44;;;10.18;100.00
15308;BME280;7755;52.208;6.964;2022-12-29T08:45:21;99663.06;;;10.20;100.00
15308;BME280;7755;52.208;6.964;2022-12-29T08:49:24;99664.22;;;10.24;100.00
15308;BME280;7755;52.208;6.964;2022-12-29T08:53:29;99666.94;;;10.29;100.00
15308;BME280;7755;52.208;6.964;2022-12-29T08:57:32;99681.66;;;10.33;100.00
15308;BME280;7755;52.208;6.964;2022-12-29T09:01:44;99694.41;;;10.33;100.00
15308;BME280;7755;52.208;6.964;2022-12-29T09:05:48;99702.28;;;10.34;100.00
15308;BME280;7755;52.208;6.964;2022-12-29T09:09:54;99691.16;;;10.36;100.00
15308;BME280;7755;52.208;6.964;2022-12-29T09:13:57;99696.34;;;10.43;100.00
15308;BME280;7755;52.208;6.964;2022-12-29T09:17:59;99692.00;;;10.42;99.53
15308;BME280;7755;52.208;6.964;2022-12-29T09:22:03;99681.13;;;10.42;99.37
15308;BME280;7755;52.208;6.964;2022-12-29T09:26:07;99694.16;;;10.34;99.28
15308;BME280;7755;52.208;6.964;2022-12-29T09:30:12;99697.44;;;10.36;98.91
15308;BME280;7755;52.208;6.964;2022-12-29T09:34:16;99679.22;;;10.42;98.33
15308;BME280;7755;52.208;6.964;2022-12-29T09:38:19;99683.66;;;10.53;98.60
15308;BME280;7755;52.208;6.964;2022-12-29T09:42:28;99693.69;;;10.53;100.00
15308;BME280;7755;52.208;6.964;2022-12-29T09:46:36;99696.97;;;10.55;98.94
15308;BME280;7755;52.208;6.964;2022-12-29T09:50:44;99696.16;;;10.54;99.48
15308;BME280;7755;52.208;6.964;2022-12-29T09:54:53;99714.09;;;10.55;99.22
15308;BME280;7755;52.208;6.964;2022-12-29T09:59:11;99704.34;;;10.64;97.97
15308;BME280;7755;52.208;6.964;2022-12-29T10:03:19;99722.84;;;10.68;97.77
15308;BME280;7755;52.208;6.964;2022-12-29T10:07:30;99698.09;;;10.64;99.93
15308;BME280;7755;52.208;6.964;2022-12-29T10:11:52;99717.03;;;10.49;100.00
15308;BME280;7755;52.208;6.964;2022-12-29T10:16:10;99714.28;;;10.38;100.00
15308;BME280;7755;52.208;6.964;2022-12-29T10:20:27;99710.19;;;10.36;100.00
15308;BME280;7755;52.208;6.964;2022-12-29T10:24:34;99706.13;;;10.38;100.00
15308;BME280;7755;52.208;6.964;2022-12-29T10:28:43;99722.19;;;10.45;100.00
15308;BME280;7755;52.208;6.964;2022-12-29T10:32:52;99697.19;;;10.48;100.00
15308;BME280;7755;52.208;6.964;2022-12-29T10:37:00;99727.94;;;10.54;100.00
15308;BME280;7755;52.208;6.964;2022-12-29T10:41:08;99724.44;;;10.58;100.00
15308;BME280;7755;52.208;6.964;2022-12-29T10:45:16;99732.88;;;10.62;100.00
15308;BME280;7755;52.208;6.964;2022-12-29T10:49:24;99727.19;;;10.69;100.00
15308;BME280;7755;52.208;6.964;2022-12-29T10:58:17;99755.78;;;10.71;100.00
15308;BME280;7755;52.208;6.964;2022-12-29T11:02:46;99755.19;;;10.69;100.00
15308;BME280;7755;52.208;6.964;2022-12-29T11:07:22;99754.09;;;10.65;100.00
15308;BME280;7755;52.208;6.964;2022-12-29T11:11:50;99741.84;;;10.62;100.00
15308;BME280;7755;52.208;6.964;2022-12-29T11:21:23;99767.13;;;10.58;100.00
15308;BME280;7755;52.208;6.964;2022-12-29T11:26:06;99785.28;;;10.52;100.00
15308;BME280;7755;52.208;6.964;2022-12-29T11:30:33;99796.94;;;10.48;100.00
15308;BME280;7755;52.208;6.964;2022-12-29T11:35:05;99792.00;;;10.39;100.00
15308;BME280;7755;52.208;6.964;2022-12-29T11:39:28;99812.59;;;10.30;100.00
15308;BME280;7755;52.208;6.964;2022-12-29T11:43:36;99813.66;;;10.29;100.00
15308;BME280;7755;52.208;6.964;2022-12-29T11:47:42;99819.66;;;10.31;100.00
15308;BME280;7755;52.208;6.964;2022-12-29T11:51:48;99811.78;;;10.30;100.00
15308;BME280;7755;52.208;6.964;2022-12-29T11:55:54;99813.09;;;10.27;100.00
15308;BME280;7755;52.208;6.964;2022-12-29T12:00:00;99833.19;;;10.26;100.00
15308;BME280;7755;52.208;6.964;2022-12-29T12:04:26;99833.19;;;10.26;100.00
15308;BME280;7755;52.208;6.964;2022-12-29T12:08:40;99835.66;;;10.28;100.00
15308;BME280;7755;52.208;6.964;2022-12-29T12:12:51;99839.19;;;10.28;100.00
15308;BME280;7755;52.208;6.964;2022-12-29T12:16:59;99835.66;;;10.28;100.00
15308;BME280;7755;52.208;6.964;2022-12-29T12:21:10;99845.75;;;10.32;100.00
15308;BME280;7755;52.208;6.964;2022-12-29T12:25:18;99852.81;;;10.33;100.00
15308;BME280;7755;52.208;6.964;2022-12-29T12:29:27;99853.91;;;10.32;100.00
15308;BME280;7755;52.208;6.964;2022-12-29T12:33:38;99860.69;;;10.30;100.00
15308;BME280;7755;52.208;6.964;2022-12-29T12:38:00;99876.13;;;10.29;100.00
15308;BME280;7755;52.208;6.964;2022-12-29T12:42:33;99872.22;;;10.20;100.00
15308;BME280;7755;52.208;6.964;2022-12-29T12:51:32;99881.28;;;10.26;100.00
15308;BME280;7755;52.208;6.964;2022-12-29T12:55:49;99876.94;;;10.25;100.00
15308;BME280;7755;52.208;6.964;2022-12-29T13:00:01;99886.44;;;10.27;100.00
15308;BME280;7755;52.208;6.964;2022-12-29T13:04:31;99889.69;;;10.24;100.00
15308;BME280;7755;52.208;6.964;2022-12-29T13:08:49;99896.75;;;10.25;100.00
15308;BME280;7755;52.208;6.964;2022-12-29T13:13:12;99898.41;;;10.26;100.00
15308;BME280;7755;52.208;6.964;2022-12-29T13:17:26;99908.94;;;10.23;100.00
15308;BME280;7755;52.208;6.964;2022-12-29T13:21:48;99905.72;;;10.26;100.00
15308;BME280;7755;52.208;6.964;2022-12-29T13:26:12;99910.34;;;10.25;100.00
15308;BME280;7755;52.208;6.964;2022-12-29T13:30:30;99908.72;;;10.29;100.00
15308;BME280;7755;52.208;6.964;2022-12-29T13:34:43;99920.69;;;10.28;100.00
15308;BME280;7755;52.208;6.964;2022-12-29T13:38:55;99921.00;;;10.32;100.00
15308;BME280;7755;52.208;6.964;2022-12-29T13:43:06;99935.97;;;10.34;100.00
15308;BME280;7755;52.208;6.964;2022-12-29T13:47:17;99938.41;;;10.36;100.00
15308;BME280;7755;52.208;6.964;2022-12-29T13:51:23;99954.72;;;10.36;100.00
15308;BME280;7755;52.208;6.964;2022-12-29T13:55:33;99952.31;;;10.39;100.00
15308;BME280;7755;52.208;6.964;2022-12-29T13:59:44;99948.22;;;10.37;100.00
15308;BME280;7755;52.208;6.964;2022-12-29T14:03:52;99956.66;;;10.41;100.00
15308;BME280;7755;52.208;6.964;2022-12-29T14:08:01;99959.91;;;10.37;100.00
15308;BME280;7755;52.208;6.964;2022-12-29T14:12:25;99958.28;;;10.36;100.00
15308;BME280;7755;52.208;6.964;2022-12-29T14:16:36;99957.19;;;10.37;100.00
15308;BME280;7755;52.208;6.964;2022-12-29T14:20:54;99970.25;;;10.41;100.00
15308;BME280;7755;52.208;6.964;2022-12-29T14:24:59;99972.16;;;10.40;100.00
15308;BME280;7755;52.208;6.964;2022-12-29T14:38:44;99983.56;;;10.37;100.00
15308;BME280;7755;52.208;6.964;2022-12-29T14:42:49;99987.31;;;10.36;100.00
15308;BME280;7755;52.208;6.964;2022-12-29T14:46:59;99989.75;;;10.32;100.00
15308;BME280;7755;52.208;6.964;2022-12-29T14:51:26;99997.38;;;10.35;100.00
15308;BME280;7755;52.208;6.964;2022-12-29T14:55:40;99985.13;;;10.33;100.00
15308;BME280;7755;52.208;6.964;2022-12-29T14:59:44;99987.28;;;10.31;100.00
15308;BME280;7755;52.208;6.964;2022-12-29T15:03:49;99991.66;;;10.32;100.00
15308;BME280;7755;52.208;6.964;2022-12-29T15:08:00;99991.91;;;10.30;100.00
15308;BME280;7755;52.208;6.964;2022-12-29T15:12:21;100003.59;;;10.31;100.00
15308;BME280;7755;52.208;6.964;2022-12-29T15:16:33;100010.88;;;10.25;100.00
15308;BME280;7755;52.208;6.964;2022-12-29T15:20:38;100012.19;;;10.23;100.00
15308;BME280;7755;52.208;6.964;2022-12-29T15:24:44;100020.25;;;10.18;100.00
15308;BME280;7755;52.208;6.964;2022-12-29T15:28:48;100023.31;;;9.99;100.00
15308;BME280;7755;52.208;6.964;2022-12-29T15:32:52;100036.59;;;9.96;100.00
15308;BME280;7755;52.208;6.964;2022-12-29T15:36:55;100043.25;;;9.88;100.00
15308;BME280;7755;52.208;6.964;2022-12-29T15:41:03;100040.22;;;9.84;100.00
15308;BME280;7755;52.208;6.964;2022-12-29T15:45:11;100047.47;;;9.79;100.00
15308;BME280;7755;52.208;6.964;2022-12-29T15:49:15;100057.44;;;9.73;100.00
15308;BME280;7755;52.208;6.964;2022-12-29T15:53:21;100054.34;;;9.65;100.00
15308;BME280;7755;52.208;6.964;2022-12-29T15:57:41;100048.53;;;9.56;100.00
15308;BME280;7755;52.208;6.964;2022-12-29T16:01:53;100053.53;;;9.47;100.00
15308;BME280;7755;52.208;6.964;2022-12-29T16:06:07;100060.56;;;9.43;100.00
15308;BME280;7755;52.208;6.964;2022-12-29T16:10:26;100068.09;;;9.41;100.00
15308;BME280;7755;52.208;6.964;2022-12-29T16:14:33;100060.47;;;9.38;100.00
15308;BME280;7755;52.208;6.964;2022-12-29T16:18:37;100062.28;;;9.33;100.00
15308;BME280;7755;52.208;6.964;2022-12-29T16:22:42;100036.56;;;9.35;100.00
15308;BME280;7755;52.208;6.964;2022-12-29T16:26:51;100061.38;;;9.27;100.00
15308;BME280;7755;52.208;6.964;2022-12-29T16:31:04;100063.28;;;9.26;100.00
15308;BME280;7755;52.208;6.964;2022-12-29T16:35:11;100061.88;;;9.24;100.00
15308;BME280;7755;52.208;6.964;2022-12-29T16:39:30;100071.41;;;9.26;100.00
15308;BME280;7755;52.208;6.964;2022-12-29T16:43:35;100065.69;;;9.23;100.00
15308;BME280;7755;52.208;6.964;2022-12-29T16:47:47;100063.44;;;9.20;100.00
15308;BME280;7755;52.208;6.964;2022-12-29T16:51:55;100063.44;;;9.20;100.00
15308;BME280;7755;52.208;6.964;2022-12-29T16:56:03;100070.75;;;9.19;100.00
15308;BME280;7755;52.208;6.964;2022-12-29T17:00:18;100074.88;;;9.22;100.00
15308;BME280;7755;52.208;6.964;2022-12-29T17:04:24;100078.41;;;9.22;100.00
15308;BME280;7755;52.208;6.964;2022-12-29T17:08:26;100071.91;;;9.23;100.00
15308;BME280;7755;52.208;6.964;2022-12-29T17:12:30;100075.75;;;9.27;100.00
15308;BME280;7755;52.208;6.964;2022-12-29T17:16:35;100075.53;;;9.29;100.00
15308;BME280;7755;52.208;6.964;2022-12-29T17:20:39;100073.06;;;9.27;100.00
15308;BME280;7755;52.208;6.964;2022-12-29T17:24:42;100088.84;;;9.30;100.00
15308;BME280;7755;52.208;6.964;2022-12-29T17:28:46;100091.31;;;9.32;100.00
15308;BME280;7755;52.208;6.964;2022-12-29T17:32:51;100102.66;;;9.29;100.00
15308;BME280;7755;52.208;6.964;2022-12-29T17:36:56;100101.25;;;9.26;100.00
15308;BME280;7755;52.208;6.964;2022-12-29T17:40:59;100120.84;;;9.28;100.00
15308;BME280;7755;52.208;6.964;2022-12-29T17:45:05;100117.78;;;9.25;100.00
15308;BME280;7755;52.208;6.964;2022-12-29T17:49:11;100129.44;;;9.25;100.00
15308;BME280;7755;52.208;6.964;2022-12-29T17:53:20;100127.81;;;9.24;100.00
15308;BME280;7755;52.208;6.964;2022-12-29T17:57:24;100134.06;;;9.25;100.00
15308;BME280;7755;52.208;6.964;2022-12-29T18:01:28;100142.19;;;9.25;100.00
15308;BME280;7755;52.208;6.964;2022-12-29T18:05:50;100146.69;;;9.19;100.00
15308;BME280;7755;52.208;6.964;2022-12-29T18:09:55;100152.88;;;9.15;100.00
15308;BME280;7755;52.208;6.964;2022-12-29T18:13:59;100143.91;;;9.14;100.00
15308;BME280;7755;52.208;6.964;2022-12-29T18:18:09;100164.44;;;9.10;100.00
15308;BME280;7755;52.208;6.964;2022-12-29T18:22:13;100169.78;;;9.05;100.00
15308;BME280;7755;52.208;6.964;2022-12-29T18:26:21;100163.44;;;8.99;100.00
15308;BME280;7755;52.208;6.964;2022-12-29T18:30:30;100177.75;;;8.95;100.00
15308;BME280;7755;52.208;6.964;2022-12-29T18:34:33;100194.97;;;8.89;100.00
15308;BME280;7755;52.208;6.964;2022-12-29T18:38:37;100192.72;;;8.86;100.00
15308;BME280;7755;52.208;6.964;2022-12-29T18:42:41;100186.47;;;8.85;100.00
15308;BME280;7755;52.208;6.964;2022-12-29T18:46:44;100199.59;;;8.77;100.00
15308;BME280;7755;52.208;6.964;2022-12-29T18:50:48;100193.63;;;8.63;100.00
15308;BME280;7755;52.208;6.964;2022-12-29T18:54:52;100198.94;;;8.58;100.00
15308;BME280;7755;52.208;6.964;2022-12-29T18:58:57;100201.22;;;8.49;100.00
15308;BME280;7755;52.208;6.964;2022-12-29T19:03:00;100199.34;;;8.38;100.00
15308;BME280;7755;52.208;6.964;2022-12-29T19:07:03;100196.97;;;8.30;100.00
15308;BME280;7755;52.208;6.964;2022-12-29T19:11:06;100201.69;;;8.23;100.00
15308;BME280;7755;52.208;6.964;2022-12-29T19:15:20;100210.78;;;8.16;100.00
15308;BME280;7755;52.208;6.964;2022-12-29T19:19:23;100217.81;;;8.17;100.00
15308;BME280;7755;52.208;6.964;2022-12-29T19:23:26;100217.59;;;8.19;100.00
15308;BME280;7755;52.208;6.964;2022-12-29T19:27:29;100222.19;;;8.18;100.00
15308;BME280;7755;52.208;6.964;2022-12-29T19:31:36;100231.94;;;8.19;100.00
15308;BME280;7755;52.208;6.964;2022-12-29T19:35:40;100244.22;;;8.22;100.00
15308;BME280;7755;52.208;6.964;2022-12-29T19:39:43;100237.72;;;8.23;100.00
15308;BME280;7755;52.208;6.964;2022-12-29T19:43:48;100241.94;;;8.19;100.00
15308;BME280;7755;52.208;6.964;2022-12-29T19:47:53;100258.81;;;8.21;100.00
15308;BME280;7755;52.208;6.964;2022-12-29T19:51:57;100260.22;;;8.24;100.00
15308;BME280;7755;52.208;6.964;2022-12-29T19:56:02;100260.44;;;8.22;100.00
15308;BME280;7755;52.208;6.964;2022-12-29T20:00:07;100255.28;;;8.20;100.00
15308;BME280;7755;52.208;6.964;2022-12-29T20:04:15;100256.69;;;8.23;100.00
15308;BME280;7755;52.208;6.964;2022-12-29T20:08:19;100266.44;;;8.24;100.00
15308;BME280;7755;52.208;6.964;2022-12-29T20:12:22;100265.88;;;8.22;100.00
15308;BME280;7755;52.208;6.964;2022-12-29T20:16:30;100275.41;;;8.25;100.00
15308;BME280;7755;52.208;6.964;2022-12-29T20:20:36;100273.41;;;8.20;100.00
15308;BME280;7755;52.208;6.964;2022-12-29T20:24:40;100286.09;;;8.19;100.00
15308;BME280;7755;52.208;6.964;2022-12-29T20:28:50;100279.78;;;8.14;100.00
15308;BME280;7755;52.208;6.964;2022-12-29T20:32:54;100298.34;;;8.10;100.00
15308;BME280;7755;52.208;6.964;2022-12-29T20:36:58;100298.84;;;8.07;100.00
15308;BME280;7755;52.208;6.964;2022-12-29T20:41:01;100297.41;;;8.05;100.00
15308;BME280;7755;52.208;6.964;2022-12-29T20:45:04;100304.94;;;8.03;100.00
15308;BME280;7755;52.208;6.964;2022-12-29T20:49:09;100314.72;;;8.04;100.00
15308;BME280;7755;52.208;6.964;2022-12-29T20:53:14;100313.06;;;8.03;100.00
15308;BME280;7755;52.208;6.964;2022-12-29T20:57:16;100312.47;;;8.01;100.00
15308;BME280;7755;52.208;6.964;2022-12-29T21:01:22;100319.78;;;8.00;100.00
15308;BME280;7755;52.208;6.964;2022-12-29T21:05:39;100320.59;;;8.01;100.00
15308;BME280;7755;52.208;6.964;2022-12-29T21:09:43;100322.00;;;8.03;100.00
15308;BME280;7755;52.208;6.964;2022-12-29T21:13:47;100322.59;;;8.05;100.00
15308;BME280;7755;52.208;6.964;2022-12-29T21:17:50;100323.41;;;8.06;100.00
15308;BME280;7755;52.208;6.964;2022-12-29T21:21:53;100332.84;;;8.03;100.00
15308;BME280;7755;52.208;6.964;2022-12-29T21:25:57;100335.69;;;8.08;100.00
15308;BME280;7755;52.208;6.964;2022-12-29T21:30:01;100335.09;;;8.06;100.00
15308;BME280;7755;52.208;6.964;2022-12-29T21:34:04;100347.56;;;8.07;100.00
15308;BME280;7755;52.208;6.964;2022-12-29T21:38:08;100347.66;;;8.01;100.00
15308;BME280;7755;52.208;6.964;2022-12-29T21:42:14;100356.84;;;8.00;100.00
15308;BME280;7755;52.208;6.964;2022-12-29T21:46:16;100353.78;;;7.96;100.00
15308;BME280;7755;52.208;6.964;2022-12-29T21:50:19;100357.06;;;7.98;100.00
15308;BME280;7755;52.208;6.964;2022-12-29T21:54:24;100362.47;;;7.98;100.00
15308;BME280;7755;52.208;6.964;2022-12-29T21:58:48;100361.06;;;7.96;100.00
15308;BME280;7755;52.208;6.964;2022-12-29T22:03:09;100376.25;;;7.97;100.00
15308;BME280;7755;52.208;6.964;2022-12-29T22:07:30;100383.53;;;7.96;100.00
15308;BME280;7755;52.208;6.964;2022-12-29T22:11:50;100383.06;;;7.87;100.00
15308;BME280;7755;52.208;6.964;2022-12-29T22:16:14;100392.44;;;7.85;100.00
15308;BME280;7755;52.208;6.964;2022-12-29T22:20:21;100398.78;;;7.79;100.00
15308;BME280;7755;52.208;6.964;2022-12-29T22:24:27;100413.09;;;7.68;100.00
15308;BME280;7755;52.208;6.964;2022-12-29T22:28:31;100413.19;;;7.61;100.00
15308;BME280;7755;52.208;6.964;2022-12-29T22:32:36;100419.28;;;7.56;100.00
15308;BME280;7755;52.208;6.964;2022-12-29T22:36:39;100415.41;;;7.52;100.00
15308;BME280;7755;52.208;6.964;2022-12-29T22:40:42;100422.44;;;7.53;100.00